Time;durP1;ratioP1;P1;durP2;ratioP2;P2;SDS_P1;SDS_P2;PMS_P1;PMS_P2;Temp;Humidity;BMP_temperature;BMP_pressure;BME280_temperature;BME280_humidity;BME280_pressure;Samples;Min_cycle;Max_cycle;Signal;HPM_P1;HPM_P2
2023/09/26 00:01:28;;;;;;;;;;;;;;;28.95;75.24;100580.63;5020304;28;70297;-37
2023/09/26 00:03:58;;;;;;;;;;;;;;;29.00;75.27;100582.66;5001149;28;66753;-37
2023/09/26 00:06:28;;;;;;;;;;;;;;;29.03;75.46;100583.13;5004095;28;69741;-36
2023/09/26 00:08:58;;;;;;;;;;;;;;;29.07;76.42;100595.13;5020904;28;65926;-36
2023/09/26 00:11:28;;;;;;;;;;;;;;;29.11;77.29;100600.94;5012818;28;70923;-37
2023/09/26 00:13:57;;;;;;;;;;;;;;;29.14;77.36;100605.91;4999006;28;65602;-36
2023/09/26 00:16:27;;;;;;;;;;;;;;;29.19;77.89;100606.09;5020898;28;69704;-37
2023/09/26 00:18:57;;;;;;;;;;;;;;;29.18;77.15;100604.44;5026243;28;66095;-37
2023/09/26 00:21:26;;;;;;;;;;;;;;;29.18;77.86;100607.16;5025985;28;70681;-37
2023/09/26 00:23:55;;;;;;;;;;;;;;;29.23;78.12;100612.72;5009475;28;66754;-37
2023/09/26 00:26:25;;;;;;;;;;;;;;;29.25;77.71;100613.31;5010472;28;69380;-37
2023/09/26 00:28:55;;;;;;;;;;;;;;;29.27;78.41;100613.13;5005430;28;65935;-37
2023/09/26 00:31:24;;;;;;;;;;;;;;;29.28;78.58;100612.06;5003330;28;69584;-37
2023/09/26 00:33:54;;;;;;;;;;;;;;;29.28;78.46;100612.91;5007216;28;65525;-37
2023/09/26 00:36:24;;;;;;;;;;;;;;;29.30;78.31;100620.78;5006994;28;70258;-37
2023/09/26 00:38:54;;;;;;;;;;;;;;;29.34;79.47;100614.75;5016938;28;66873;-37
2023/09/26 00:41:24;;;;;;;;;;;;;;;29.40;78.87;100621.16;5012547;28;70550;-37
2023/09/26 00:43:53;;;;;;;;;;;;;;;29.43;78.60;100625.31;5013354;28;66893;-36
2023/09/26 00:46:24;;;;;;;;;;;;;;;29.48;78.80;100622.78;4992497;28;69323;-38
2023/09/26 00:48:54;;;;;;;;;;;;;;;29.46;78.78;100630.28;5007989;28;68078;-36
2023/09/26 00:51:23;;;;;;;;;;;;;;;29.48;76.19;100633.59;5009495;28;70046;-36
2023/09/26 00:53:53;;;;;;;;;;;;;;;29.49;74.83;100630.66;5003541;28;66162;-36
2023/09/26 00:56:23;;;;;;;;;;;;;;;29.51;74.43;100633.97;4997154;28;69132;-35
2023/09/26 00:58:53;;;;;;;;;;;;;;;29.53;73.65;100637.31;5002869;28;66920;-36
2023/09/26 01:01:26;;;;;;;;;;;;;;;29.55;74.02;100631.66;4994678;28;70456;-35
2023/09/26 01:03:56;;;;;;;;;;;;;;;29.57;72.66;100633.09;5019079;28;66884;-36
2023/09/26 01:06:26;;;;;;;;;;;;;;;29.59;72.23;100641.00;5007143;28;70392;-35
2023/09/26 01:08:56;;;;;;;;;;;;;;;29.60;71.56;100631.84;5006199;28;65601;-35
2023/09/26 01:11:26;;;;;;;;;;;;;;;29.61;71.94;100636.19;5006394;28;68900;-35
2023/09/26 01:13:55;;;;;;;;;;;;;;;29.62;71.70;100633.28;5019830;28;66689;-35
2023/09/26 01:16:25;;;;;;;;;;;;;;;29.65;71.29;100637.47;5017444;28;70669;-35
2023/09/26 01:18:55;;;;;;;;;;;;;;;29.66;71.16;100636.41;5012492;28;65334;-36
2023/09/26 01:21:24;;;;;;;;;;;;;;;29.68;70.89;100634.31;5013226;28;69095;-35
2023/09/26 01:23:57;;;;;;;;;;;;;;;29.70;70.64;100642.19;4999453;28;65605;-35
2023/09/26 01:26:34;;;;;;;;;;;;;;;29.71;70.75;100643.88;4999847;28;70547;-36
2023/09/26 01:29:06;;;;;;;;;;;;;;;29.72;70.36;100651.75;5007911;28;66852;-38
2023/09/26 01:31:36;;;;;;;;;;;;;;;29.72;70.15;100654.47;5006630;28;69565;-36
2023/09/26 01:34:06;;;;;;;;;;;;;;;29.74;70.07;100655.06;5009589;28;66025;-36
2023/09/26 01:36:36;;;;;;;;;;;;;;;29.76;70.42;100661.09;4995966;28;68825;-35
2023/09/26 01:39:06;;;;;;;;;;;;;;;29.77;69.81;100665.44;5009290;28;65549;-36
2023/09/26 01:41:35;;;;;;;;;;;;;;;29.78;70.16;100661.72;4997485;28;70340;-35
2023/09/26 01:44:06;;;;;;;;;;;;;;;29.81;70.03;100671.25;5017947;28;65348;-36
2023/09/26 01:46:35;;;;;;;;;;;;;;;29.82;69.52;100670.22;5016962;28;70211;-35
2023/09/26 01:49:05;;;;;;;;;;;;;;;29.83;70.18;100664.56;5001873;28;65745;-36
2023/09/26 01:51:35;;;;;;;;;;;;;;;29.85;69.91;100672.47;5010716;28;70539;-36
2023/09/26 01:54:05;;;;;;;;;;;;;;;29.88;70.11;100677.44;4994992;28;64509;-36
2023/09/26 01:56:34;;;;;;;;;;;;;;;29.90;69.51;100679.94;5015098;28;69597;-36
2023/09/26 01:59:04;;;;;;;;;;;;;;;29.92;69.84;100672.41;5006820;28;66239;-36
2023/09/26 02:01:33;;;;;;;;;;;;;;;29.94;69.93;100671.16;4986889;28;70303;-36
2023/09/26 02:04:03;;;;;;;;;;;;;;;29.97;69.73;100675.31;5010471;28;66536;-36
2023/09/26 02:06:32;;;;;;;;;;;;;;;29.97;69.78;100675.31;4985837;28;69626;-36
2023/09/26 02:09:03;;;;;;;;;;;;;;;29.98;69.54;100666.16;5012725;28;66719;-35
2023/09/26 02:11:33;;;;;;;;;;;;;;;30.00;69.91;100670.28;5007849;28;70085;-36
2023/09/26 02:14:02;;;;;;;;;;;;;;;30.03;69.49;100671.72;5014705;28;65865;-35
2023/09/26 02:16:32;;;;;;;;;;;;;;;30.05;69.57;100672.34;5018133;28;70634;-36
2023/09/26 02:19:02;;;;;;;;;;;;;;;30.06;69.87;100673.97;5007861;28;66607;-35
2023/09/26 02:21:31;;;;;;;;;;;;;;;30.10;69.10;100675.22;5004705;28;69946;-35
2023/09/26 02:24:01;;;;;;;;;;;;;;;30.11;69.25;100668.75;4990601;28;66341;-35
2023/09/26 02:26:30;;;;;;;;;;;;;;;29.91;69.34;100643.72;5013857;28;70895;-36
2023/09/26 02:29:00;;;;;;;;;;;;;;;30.17;69.20;100675.16;5012466;28;67390;-36
2023/09/26 02:31:29;;;;;;;;;;;;;;;30.19;69.06;100657.66;5012205;28;69794;-36
2023/09/26 02:33:59;;;;;;;;;;;;;;;30.21;69.29;100666.38;5013063;28;66532;-36
2023/09/26 02:36:28;;;;;;;;;;;;;;;30.24;69.45;100660.56;5005816;28;69409;-36
2023/09/26 02:38:58;;;;;;;;;;;;;;;30.27;69.46;100662.81;5013043;28;65602;-35
2023/09/26 02:41:28;;;;;;;;;;;;;;;30.28;69.18;100653.66;5010953;28;69831;-36
2023/09/26 02:43:58;;;;;;;;;;;;;;;30.32;69.36;100658.63;5012807;28;65837;-36
2023/09/26 02:46:28;;;;;;;;;;;;;;;30.35;68.73;100658.19;4992015;28;69198;-36
2023/09/26 02:49:00;;;;;;;;;;;;;;;30.37;69.23;100664.19;5010122;28;65797;-37
2023/09/26 02:51:29;;;;;;;;;;;;;;;30.39;69.20;100664.78;5011036;28;69556;-36
2023/09/26 02:53:59;;;;;;;;;;;;;;;30.42;69.24;100677.88;5012715;28;66841;-36
2023/09/26 02:56:29;;;;;;;;;;;;;;;30.44;69.13;100673.06;4991951;28;69079;-35
2023/09/26 02:58:58;;;;;;;;;;;;;;;30.47;69.18;100669.94;4996138;28;66450;-36
2023/09/26 03:01:28;;;;;;;;;;;;;;;30.50;69.10;100666.78;5013844;28;70822;-35
2023/09/26 03:03:57;;;;;;;;;;;;;;;30.53;68.63;100662.78;5013358;28;67090;-35
2023/09/26 03:06:27;;;;;;;;;;;;;;;30.55;68.69;100666.94;4987459;28;69438;-36
2023/09/26 03:08:56;;;;;;;;;;;;;;;30.57;68.38;100664.84;5009380;28;65750;-36
2023/09/26 03:11:26;;;;;;;;;;;;;;;30.59;68.36;100662.75;5014183;28;69996;-36
2023/09/26 03:13:55;;;;;;;;;;;;;;;30.62;68.69;100659.59;5010197;28;65622;-37
2023/09/26 03:16:25;;;;;;;;;;;;;;;30.64;68.71;100649.34;5011648;28;70696;-36
2023/09/26 03:18:55;;;;;;;;;;;;;;;30.67;68.30;100648.91;5011960;28;66182;-35
2023/09/26 03:21:25;;;;;;;;;;;;;;;30.69;68.44;100652.22;5016784;28;69814;-35
2023/09/26 03:23:54;;;;;;;;;;;;;;;30.70;68.65;100640.34;5006451;28;65760;-41
2023/09/26 03:26:24;;;;;;;;;;;;;;;30.73;68.16;100642.59;4994730;28;70070;-35
2023/09/26 03:28:54;;;;;;;;;;;;;;;30.76;68.42;100643.19;4985561;28;65487;-36
2023/09/26 03:31:23;;;;;;;;;;;;;;;30.77;68.34;100642.97;5006207;28;69805;-36
2023/09/26 03:33:53;;;;;;;;;;;;;;;30.79;68.38;100634.63;5020270;28;67135;-36
2023/09/26 03:36:23;;;;;;;;;;;;;;;30.81;67.96;100632.53;5014763;28;70138;-36
2023/09/26 03:38:52;;;;;;;;;;;;;;;30.84;68.21;100626.66;5013088;28;66332;-36
2023/09/26 03:41:23;;;;;;;;;;;;;;;30.85;68.45;100633.75;5017439;28;70033;-36
2023/09/26 03:43:52;;;;;;;;;;;;;;;30.87;68.07;100621.66;5003225;28;65420;-36
2023/09/26 03:46:21;;;;;;;;;;;;;;;30.87;68.01;100616.22;5004634;28;70773;-36
2023/09/26 03:48:51;;;;;;;;;;;;;;;30.91;67.92;100616.59;5012465;28;65829;-35
2023/09/26 03:51:21;;;;;;;;;;;;;;;30.93;68.04;100603.66;5010037;28;70118;-35
2023/09/26 03:53:50;;;;;;;;;;;;;;;30.94;68.10;100594.47;5015473;28;67009;-35
2023/09/26 03:56:20;;;;;;;;;;;;;;;30.97;68.08;100599.44;5015078;28;69744;-35
2023/09/26 03:58:49;;;;;;;;;;;;;;;30.99;67.84;100600.03;5008810;28;66077;-36
2023/09/26 04:01:19;;;;;;;;;;;;;;;31.01;67.73;100597.94;4984357;28;69188;-36
2023/09/26 04:03:52;;;;;;;;;;;;;;;31.03;68.08;100592.28;5021743;28;60131;-35
2023/09/26 04:06:23;;;;;;;;;;;;;;;31.04;67.89;100589.34;5016741;28;68852;-36
2023/09/26 04:08:52;;;;;;;;;;;;;;;31.07;67.84;100588.06;5008932;28;66625;-36
2023/09/26 04:11:22;;;;;;;;;;;;;;;31.08;67.70;100590.53;5010270;28;70799;-35
2023/09/26 04:13:51;;;;;;;;;;;;;;;31.09;67.53;100581.38;5009905;28;66463;-36
2023/09/26 04:16:21;;;;;;;;;;;;;;;31.10;67.90;100583.00;5012344;28;70528;-35
2023/09/26 04:18:50;;;;;;;;;;;;;;;31.12;67.99;100583.59;5010263;28;65399;-36
2023/09/26 04:21:20;;;;;;;;;;;;;;;31.14;67.66;100583.38;5013877;28;70046;-36
2023/09/26 04:23:50;;;;;;;;;;;;;;;31.16;67.29;100581.25;5017198;28;66139;-35
2023/09/26 04:26:20;;;;;;;;;;;;;;;31.19;67.54;100577.28;5015260;28;69413;-36
2023/09/26 04:28:50;;;;;;;;;;;;;;;31.20;67.69;100581.63;5011597;28;65761;-36
2023/09/26 04:31:19;;;;;;;;;;;;;;;31.21;67.60;100572.44;5015185;28;70506;-36
2023/09/26 04:33:49;;;;;;;;;;;;;;;31.20;67.76;100562.66;5017449;28;66860;-36
2023/09/26 04:36:19;;;;;;;;;;;;;;;31.24;67.69;100589.06;5015565;28;70033;-38
2023/09/26 04:38:49;;;;;;;;;;;;;;;31.26;67.62;100588.81;5010951;28;65324;-36
2023/09/26 04:41:18;;;;;;;;;;;;;;;31.26;67.73;100569.84;5018011;28;70371;-36
2023/09/26 04:43:48;;;;;;;;;;;;;;;31.27;67.64;100566.94;5009929;28;65716;-35
2023/09/26 04:46:18;;;;;;;;;;;;;;;31.28;67.90;100562.31;5015813;28;70454;-36
2023/09/26 04:48:47;;;;;;;;;;;;;;;31.29;67.94;100561.28;4986486;28;66081;-35
2023/09/26 04:51:20;;;;;;;;;;;;;;;31.30;67.81;100565.66;5016538;28;70518;-37
2023/09/26 04:53:49;;;;;;;;;;;;;;;31.29;68.06;100553.16;5016720;28;65696;-37
2023/09/26 04:56:19;;;;;;;;;;;;;;;31.29;68.31;100555.88;5003264;28;69884;-36
2023/09/26 04:58:49;;;;;;;;;;;;;;;31.31;68.00;100556.44;5013635;28;65872;-45
2023/09/26 05:01:18;;;;;;;;;;;;;;;31.30;67.77;100549.38;5014497;28;70901;-35
2023/09/26 05:03:48;;;;;;;;;;;;;;;31.31;68.01;100541.00;5019906;28;65397;-35
2023/09/26 05:06:18;;;;;;;;;;;;;;;31.31;68.16;100540.19;5007559;28;70513;-35
2023/09/26 05:08:48;;;;;;;;;;;;;;;31.31;68.23;100545.59;5002857;28;66385;-36
2023/09/26 05:11:18;;;;;;;;;;;;;;;31.32;68.41;100552.69;5004028;28;70687;-35
2023/09/26 05:13:47;;;;;;;;;;;;;;;31.31;68.35;100551.84;5007943;28;66705;-37
2023/09/26 05:16:18;;;;;;;;;;;;;;;31.30;68.65;100538.53;5016927;28;69873;-38
2023/09/26 05:18:48;;;;;;;;;;;;;;;31.30;68.55;100543.97;5011622;28;67307;-36
2023/09/26 05:21:17;;;;;;;;;;;;;;;31.30;68.38;100533.94;5009083;28;68023;-35
2023/09/26 05:23:47;;;;;;;;;;;;;;;31.30;68.26;100535.84;5015485;28;66630;-35
2023/09/26 05:26:16;;;;;;;;;;;;;;;31.29;68.87;100515.22;5015248;28;70327;-36
2023/09/26 05:28:46;;;;;;;;;;;;;;;31.27;68.92;100507.31;4993548;28;66404;-35
2023/09/26 05:31:17;;;;;;;;;;;;;;;31.28;68.43;100518.97;5012949;28;70415;-35
2023/09/26 05:33:47;;;;;;;;;;;;;;;31.27;68.68;100509.19;5011567;28;66354;-35
2023/09/26 05:36:16;;;;;;;;;;;;;;;31.26;69.11;100511.09;5011553;28;70107;-35
2023/09/26 05:38:46;;;;;;;;;;;;;;;31.26;69.11;100512.94;5011620;28;65498;-35
2023/09/26 05:41:15;;;;;;;;;;;;;;;31.26;68.88;100499.41;5005891;28;70658;-36
2023/09/26 05:43:45;;;;;;;;;;;;;;;31.25;68.89;100497.75;5002305;28;66679;-34
2023/09/26 05:46:15;;;;;;;;;;;;;;;31.23;69.15;100500.72;5003051;28;70854;-36
2023/09/26 05:48:45;;;;;;;;;;;;;;;31.22;69.02;100492.81;5002825;28;66847;-35
2023/09/26 05:51:14;;;;;;;;;;;;;;;31.21;69.58;100486.56;5000319;28;69502;-36
2023/09/26 05:53:44;;;;;;;;;;;;;;;31.21;69.30;100496.59;5004250;28;66343;-38
2023/09/26 05:56:13;;;;;;;;;;;;;;;31.19;69.13;100483.25;5009177;28;70128;-36
2023/09/26 05:58:43;;;;;;;;;;;;;;;31.20;69.01;100494.91;5013476;28;67063;-35
2023/09/26 06:01:12;;;;;;;;;;;;;;;31.19;69.12;100494.09;5017411;28;70533;-36
2023/09/26 06:03:42;;;;;;;;;;;;;;;31.19;69.35;100482.44;5018099;28;65406;-36
2023/09/26 06:06:12;;;;;;;;;;;;;;;31.17;69.08;100471.81;4995086;28;69263;-35
2023/09/26 06:08:41;;;;;;;;;;;;;;;31.15;69.23;100477.47;5012694;28;66792;-36
2023/09/26 06:11:11;;;;;;;;;;;;;;;31.14;69.08;100467.69;5017426;28;69836;-36
2023/09/26 06:13:42;;;;;;;;;;;;;;;31.14;69.03;100467.69;5018709;28;65675;-36
2023/09/26 06:16:12;;;;;;;;;;;;;;;31.14;69.00;100464.97;5024508;28;70700;-37
2023/09/26 06:18:42;;;;;;;;;;;;;;;31.12;68.62;100472.53;5009898;28;66713;-36
2023/09/26 06:21:13;;;;;;;;;;;;;;;31.13;68.90;100465.22;5020909;28;70377;-36
2023/09/26 06:23:42;;;;;;;;;;;;;;;31.11;69.04;100454.59;5020455;28;66207;-36
2023/09/26 06:26:12;;;;;;;;;;;;;;;31.12;68.55;100450.84;5007302;28;70657;-35
2023/09/26 06:28:41;;;;;;;;;;;;;;;31.12;68.86;100440.03;5005971;28;65477;-35
2023/09/26 06:31:11;;;;;;;;;;;;;;;31.13;68.85;100433.53;5018184;28;70094;-35
2023/09/26 06:33:41;;;;;;;;;;;;;;;31.14;68.91;100432.47;5020735;28;66163;-36
2023/09/26 06:36:21;;;;;;;;;;;;;;;31.13;68.47;100428.13;5022316;28;69481;-35
2023/09/26 06:38:50;;;;;;;;;;;;;;;31.13;68.61;100430.81;4998986;28;66757;-35
2023/09/26 06:41:20;;;;;;;;;;;;;;;31.16;68.95;100427.66;5020947;28;69226;-37
2023/09/26 06:43:49;;;;;;;;;;;;;;;31.15;68.59;100423.28;5018039;28;66384;-36
2023/09/26 06:46:20;;;;;;;;;;;;;;;31.15;68.43;100422.47;5021792;28;70739;-36
2023/09/26 06:48:52;;;;;;;;;;;;;;;31.16;68.63;100414.09;5016949;28;65649;-36
2023/09/26 06:51:22;;;;;;;;;;;;;;;31.16;68.97;100414.09;5023011;28;69662;-36
2023/09/26 06:53:51;;;;;;;;;;;;;;;31.16;68.26;100424.94;4990579;28;66317;-37
2023/09/26 06:56:22;;;;;;;;;;;;;;;31.16;68.89;100413.28;5023034;28;70546;-36
2023/09/26 06:58:52;;;;;;;;;;;;;;;31.16;68.41;100424.13;5002846;28;65939;-36
2023/09/26 07:01:22;;;;;;;;;;;;;;;31.16;68.59;100421.41;5017685;28;69323;-35
2023/09/26 07:03:51;;;;;;;;;;;;;;;31.19;68.83;100422.81;5015088;28;66915;-36
2023/09/26 07:06:21;;;;;;;;;;;;;;;31.16;68.52;100418.69;5021391;28;69912;-36
2023/09/26 07:08:55;;;;;;;;;;;;;;;31.15;68.53;100412.47;5019361;28;66030;-36
2023/09/26 07:11:24;;;;;;;;;;;;;;;31.16;68.47;100411.38;5020160;28;70066;-40
2023/09/26 07:13:54;;;;;;;;;;;;;;;31.16;68.64;100419.53;5022660;28;65749;-36
2023/09/26 07:16:23;;;;;;;;;;;;;;;31.16;68.67;100416.81;5017967;28;70352;-35
2023/09/26 07:18:53;;;;;;;;;;;;;;;31.16;68.42;100410.56;5019518;28;66010;-35
2023/09/26 07:21:23;;;;;;;;;;;;;;;31.15;68.72;100412.47;5015520;28;70913;-36
2023/09/26 07:23:53;;;;;;;;;;;;;;;31.16;68.26;100419.53;5021673;28;65680;-36
2023/09/26 07:26:23;;;;;;;;;;;;;;;31.15;68.51;100423.28;5017424;28;70448;-35
2023/09/26 07:28:54;;;;;;;;;;;;;;;31.15;68.45;100423.28;5022161;28;65395;-36
2023/09/26 07:31:24;;;;;;;;;;;;;;;31.15;68.45;100423.28;5016645;28;69766;-36
2023/09/26 07:33:54;;;;;;;;;;;;;;;31.15;68.46;100423.28;5012770;28;65128;-36
2023/09/26 07:36:24;;;;;;;;;;;;;;;31.15;68.52;100436.84;5020930;28;70587;-36
2023/09/26 07:38:54;;;;;;;;;;;;;;;31.15;68.13;100430.59;5022051;28;66592;-36
2023/09/26 07:41:23;;;;;;;;;;;;;;;31.15;68.10;100439.56;5019981;28;70299;-37
2023/09/26 07:43:53;;;;;;;;;;;;;;;31.14;68.36;100437.88;5021862;28;65986;-35
2023/09/26 07:46:23;;;;;;;;;;;;;;;31.14;68.71;100443.31;5018483;28;70470;-36
2023/09/26 07:48:53;;;;;;;;;;;;;;;31.15;68.61;100446.84;5021202;28;66645;-36
2023/09/26 07:51:23;;;;;;;;;;;;;;;31.13;68.77;100441.66;5009955;28;70001;-36
2023/09/26 07:53:53;;;;;;;;;;;;;;;31.14;68.44;100439.78;5028594;28;66922;-40
2023/09/26 07:56:22;;;;;;;;;;;;;;;31.14;68.71;100437.06;5011361;28;69905;-35
2023/09/26 07:58:52;;;;;;;;;;;;;;;31.13;68.59;100441.66;5008029;28;65574;-36
2023/09/26 08:01:22;;;;;;;;;;;;;;;31.12;68.42;100437.31;5018470;28;69794;-37
2023/09/26 08:03:51;;;;;;;;;;;;;;;31.13;68.37;100446.25;5017157;28;65346;-35
2023/09/26 08:06:21;;;;;;;;;;;;;;;31.13;68.66;100446.25;5015295;28;70587;-35
2023/09/26 08:08:50;;;;;;;;;;;;;;;31.13;68.77;100447.06;5014258;28;66355;-36
2023/09/26 08:11:21;;;;;;;;;;;;;;;31.11;68.55;100443.78;5009588;28;68703;-36
2023/09/26 08:13:50;;;;;;;;;;;;;;;31.10;68.63;100442.13;5011069;28;65779;-36
2023/09/26 08:16:22;;;;;;;;;;;;;;;31.11;68.85;100441.06;5010697;28;70394;-35
2023/09/26 08:18:52;;;;;;;;;;;;;;;31.11;68.61;100446.47;4989355;28;64917;-36
2023/09/26 08:21:23;;;;;;;;;;;;;;;31.11;68.54;100443.78;5014490;28;69203;-37
2023/09/26 08:23:54;;;;;;;;;;;;;;;31.11;68.64;100448.38;5011665;28;65697;-36
2023/09/26 08:26:23;;;;;;;;;;;;;;;31.11;68.77;100453.78;5010133;28;70464;-36
2023/09/26 08:28:53;;;;;;;;;;;;;;;31.10;68.74;100452.97;5009335;28;66370;-37
2023/09/26 08:31:22;;;;;;;;;;;;;;;31.10;68.44;100447.53;5010604;28;70039;-38
2023/09/26 08:33:53;;;;;;;;;;;;;;;31.10;68.53;100452.97;5011613;28;65448;-36
2023/09/26 08:36:24;;;;;;;;;;;;;;;31.10;68.55;100452.97;5009696;28;69575;-36
2023/09/26 08:38:55;;;;;;;;;;;;;;;31.10;68.34;100458.38;5007680;28;66126;-36
2023/09/26 08:41:26;;;;;;;;;;;;;;;31.10;68.38;100460.28;5006454;28;69075;-36
2023/09/26 08:43:56;;;;;;;;;;;;;;;31.09;68.61;100464.88;5011393;28;65329;-36
2023/09/26 08:46:26;;;;;;;;;;;;;;;31.09;68.27;100467.56;5010855;28;70567;-36
2023/09/26 08:48:55;;;;;;;;;;;;;;;31.06;68.50;100473.44;4984908;28;66095;-36
2023/09/26 08:51:27;;;;;;;;;;;;;;;31.07;68.80;100468.88;5002449;28;69646;-37
2023/09/26 08:53:56;;;;;;;;;;;;;;;31.05;68.88;100458.25;4991375;28;66098;-39
2023/09/26 08:56:26;;;;;;;;;;;;;;;31.05;68.55;100458.25;4988769;28;69802;-36
2023/09/26 08:58:55;;;;;;;;;;;;;;;31.05;68.44;100460.97;4994383;28;65868;-35
2023/09/26 09:01:25;;;;;;;;;;;;;;;31.05;68.93;100454.72;5004840;28;69582;-35
2023/09/26 09:03:55;;;;;;;;;;;;;;;31.04;68.74;100459.31;4990563;28;65690;-36
2023/09/26 09:06:25;;;;;;;;;;;;;;;31.04;69.05;100453.06;4991684;28;70447;-37
2023/09/26 09:09:10;;;;;;;;;;;;;;;31.04;68.80;100453.91;4990880;28;66626;-35
2023/09/26 09:11:39;;;;;;;;;;;;;;;31.03;68.84;100451.41;4986675;28;70497;-35
2023/09/26 09:14:09;;;;;;;;;;;;;;;31.02;68.92;100456.00;4990810;28;65777;-35
2023/09/26 09:16:39;;;;;;;;;;;;;;;31.03;68.61;100457.66;4987278;28;70392;-36
2023/09/26 09:19:08;;;;;;;;;;;;;;;31.02;68.96;100464.13;4992444;28;66381;-36
2023/09/26 09:21:38;;;;;;;;;;;;;;;31.02;68.46;100461.41;4986817;28;70528;-36
2023/09/26 09:24:08;;;;;;;;;;;;;;;31.01;68.78;100470.63;4989830;28;65775;-35
2023/09/26 09:26:37;;;;;;;;;;;;;;;30.91;70.10;100454.91;4994113;28;69878;-37
2023/09/26 09:29:20;;;;;;;;;;;;;;;30.91;70.44;100464.91;4987793;28;65652;-37
2023/09/26 09:31:51;;;;;;;;;;;;;;;30.87;70.58;100469.13;4986180;28;70462;-37
2023/09/26 09:34:23;;;;;;;;;;;;;;;30.87;70.31;100479.97;4997243;28;66617;-37
2023/09/26 09:36:59;;;;;;;;;;;;;;;30.88;70.88;100473.50;4997065;28;70858;-38
2023/09/26 09:39:29;;;;;;;;;;;;;;;30.85;70.89;100482.91;4994658;28;65697;-38
2023/09/26 09:41:59;;;;;;;;;;;;;;;30.75;72.74;100477.19;4992725;28;69068;-37
2023/09/26 09:44:30;;;;;;;;;;;;;;;30.70;73.59;100491.44;4992529;28;66751;-38
2023/09/26 09:47:03;;;;;;;;;;;;;;;30.64;74.21;100488.78;4994305;28;71373;-37
2023/09/26 09:49:36;;;;;;;;;;;;;;;30.59;74.34;100489.50;5004423;28;66234;-37
2023/09/26 09:52:08;;;;;;;;;;;;;;;30.56;74.29;100489.91;4983728;28;69602;-37
2023/09/26 09:54:43;;;;;;;;;;;;;;;30.54;74.16;100489.34;4987302;28;65424;-37
2023/09/26 09:57:17;;;;;;;;;;;;;;;30.49;74.55;100489.19;4988600;28;69420;-35
2023/09/26 09:59:47;;;;;;;;;;;;;;;30.47;74.56;100492.13;4985261;28;65305;-37
2023/09/26 10:02:17;;;;;;;;;;;;;;;30.46;74.46;100484.25;4986128;28;70080;-37
2023/09/26 10:04:47;;;;;;;;;;;;;;;30.43;74.67;100487.41;4986276;28;65945;-37
2023/09/26 10:07:17;;;;;;;;;;;;;;;30.45;74.42;100487.97;4990591;28;69434;-37
2023/09/26 10:09:47;;;;;;;;;;;;;;;30.42;74.79;100489.28;4986566;28;66530;-38
2023/09/26 10:12:17;;;;;;;;;;;;;;;30.43;74.79;100490.09;4987082;28;69255;-36
2023/09/26 10:14:47;;;;;;;;;;;;;;;30.40;74.87;100487.84;4990689;28;67101;-36
2023/09/26 10:17:19;;;;;;;;;;;;;;;30.41;74.73;100490.31;4990106;28;69757;-35
2023/09/26 10:19:49;;;;;;;;;;;;;;;30.39;75.32;100486.19;4986985;28;66165;-36
2023/09/26 10:22:41;;;;;;;;;;;;;;;30.39;74.78;100488.88;4988010;28;71175;-37
2023/09/26 10:25:15;;;;;;;;;;;;;;;30.37;75.20;100489.13;4990321;28;66896;-37
2023/09/26 10:27:51;;;;;;;;;;;;;;;30.38;75.02;100498.06;4987141;28;69253;-37
2023/09/26 10:30:27;;;;;;;;;;;;;;;30.37;75.52;100499.97;4985678;28;66469;-37
2023/09/26 10:32:57;;;;;;;;;;;;;;;30.35;75.61;100503.94;4989924;28;69631;-37
2023/09/26 10:35:28;;;;;;;;;;;;;;;30.36;75.89;100505.59;4992906;28;65530;-36
2023/09/26 10:38:06;;;;;;;;;;;;;;;30.37;75.97;100501.81;4985289;28;70327;-36
2023/09/26 10:40:36;;;;;;;;;;;;;;;30.37;75.91;100491.00;4992738;28;66951;-36
2023/09/26 10:43:06;;;;;;;;;;;;;;;30.37;75.68;100480.16;4994799;28;69845;-37
2023/09/26 10:45:57;;;;;;;;;;;;;;;30.40;75.75;100482.44;4994812;28;66295;-37
2023/09/26 10:48:27;;;;;;;;;;;;;;;30.39;75.49;100488.88;4999038;28;69125;-37
2023/09/26 10:50:58;;;;;;;;;;;;;;;30.38;75.94;100492.66;5001075;28;66402;-38
2023/09/26 10:53:28;;;;;;;;;;;;;;;30.36;75.47;100501.00;5025584;28;69485;-36
2023/09/26 10:55:58;;;;;;;;;;;;;;;30.36;75.83;100497.47;5016723;28;67034;-37
2023/09/26 10:58:30;;;;;;;;;;;;;;;30.36;76.35;100494.75;5013117;28;69801;-37
2023/09/26 11:01:00;;;;;;;;;;;;;;;30.35;76.39;100504.75;5008726;28;65250;-37
2023/09/26 11:03:30;;;;;;;;;;;;;;;30.37;76.59;100518.06;5034362;28;69980;-36
2023/09/26 11:06:01;;;;;;;;;;;;;;;30.43;75.81;100528.00;5013032;28;65768;-36
2023/09/26 11:08:31;;;;;;;;;;;;;;;30.47;75.27;100534.59;5033353;28;70022;-38
2023/09/26 11:11:01;;;;;;;;;;;;;;;30.53;75.05;100543.69;5009537;28;66679;-40
2023/09/26 11:13:30;;;;;;;;;;;;;;;30.58;75.13;100552.78;5021724;28;69960;-37
2023/09/26 11:16:00;;;;;;;;;;;;;;;30.60;74.13;100568.81;5024220;28;65268;-37
2023/09/26 11:18:30;;;;;;;;;;;;;;;30.63;74.10;100577.31;5024694;28;70657;-39
2023/09/26 11:21:00;;;;;;;;;;;;;;;30.65;74.07;100580.63;5013986;28;66444;-37
2023/09/26 11:23:49;;;;;;;;;;;;;;;30.66;73.76;100592.28;5006525;28;70401;-37
2023/09/26 11:26:19;;;;;;;;;;;;;;;30.68;73.50;100584.75;5008266;28;66094;-38
2023/09/26 11:28:58;;;;;;;;;;;;;;;30.68;73.72;100591.00;5018880;28;69341;-38
2023/09/26 11:31:29;;;;;;;;;;;;;;;30.69;73.37;100592.63;5007707;28;66367;-38
2023/09/26 11:34:08;;;;;;;;;;;;;;;30.68;73.26;100599.13;5008712;28;70555;-37
2023/09/26 11:37:01;;;;;;;;;;;;;;;30.70;73.36;100610.56;5031192;28;67059;-37
2023/09/26 11:40:06;;;;;;;;;;;;;;;30.70;73.52;100620.53;5016734;28;69965;-38
2023/09/26 11:42:42;;;;;;;;;;;;;;;30.70;73.10;100637.63;5025424;28;66809;-37
2023/09/26 11:45:32;;;;;;;;;;;;;;;30.70;73.52;100637.63;5025546;28;70038;-37
2023/09/26 11:48:05;;;;;;;;;;;;;;;30.68;73.35;100644.31;5024084;28;66512;-38
2023/09/26 11:50:41;;;;;;;;;;;;;;;30.69;73.12;100641.38;5021921;28;69864;-37
2023/09/26 11:53:13;;;;;;;;;;;;;;;30.69;73.46;100644.09;5006896;28;66450;-37
2023/09/26 11:55:43;;;;;;;;;;;;;;;30.66;73.18;100652.66;5018021;28;69946;-36
2023/09/26 11:58:12;;;;;;;;;;;;;;;30.67;73.23;100659.75;5021797;28;67156;-37
2023/09/26 12:00:42;;;;;;;;;;;;;;;30.65;73.47;100661.84;5021678;28;70271;-38
2023/09/26 12:03:11;;;;;;;;;;;;;;;30.65;73.31;100664.56;5022306;28;65406;-37
2023/09/26 12:05:41;;;;;;;;;;;;;;;30.65;73.21;100672.66;5027711;28;70442;-37
2023/09/26 12:08:11;;;;;;;;;;;;;;;30.64;73.25;100678.28;4991682;28;66065;-36
2023/09/26 12:10:43;;;;;;;;;;;;;;;30.63;73.53;100677.47;5020061;28;70061;-38
2023/09/26 12:13:12;;;;;;;;;;;;;;;30.63;73.03;100682.88;5008977;28;66903;-38
2023/09/26 12:15:42;;;;;;;;;;;;;;;30.63;73.54;100685.59;5015339;28;69100;-37
2023/09/26 12:18:12;;;;;;;;;;;;;;;30.62;73.30;100689.38;5025368;28;65647;-38
2023/09/26 12:20:42;;;;;;;;;;;;;;;30.62;73.11;100694.78;5015320;28;70453;-37
2023/09/26 12:23:13;;;;;;;;;;;;;;;30.61;73.12;100697.69;5010813;28;65680;-38
2023/09/26 12:25:42;;;;;;;;;;;;;;;30.60;73.72;100694.16;5009548;28;69966;-37
2023/09/26 12:28:12;;;;;;;;;;;;;;;30.59;73.25;100692.53;5020420;28;65567;-37
2023/09/26 12:30:42;;;;;;;;;;;;;;;30.44;75.94;100686.63;5014104;28;69167;-39
2023/09/26 12:33:11;;;;;;;;;;;;;;;30.37;76.92;100702.06;5019419;28;65661;-37
2023/09/26 12:35:41;;;;;;;;;;;;;;;30.34;77.45;100702.50;5001965;28;70036;-36
2023/09/26 12:38:11;;;;;;;;;;;;;;;30.30;77.95;100712.13;5016289;28;65411;-38
2023/09/26 12:40:40;;;;;;;;;;;;;;;30.28;78.06;100715.91;5012306;28;69787;-37
2023/09/26 12:43:10;;;;;;;;;;;;;;;30.28;78.02;100715.03;5014884;28;66591;-38
2023/09/26 12:45:39;;;;;;;;;;;;;;;30.31;78.52;100720.00;5009433;28;69622;-37
2023/09/26 12:48:16;;;;;;;;;;;;;;;30.30;78.45;100729.19;5021106;28;65943;-36
2023/09/26 12:50:51;;;;;;;;;;;;;;;30.03;78.76;100687.94;5006412;28;70587;-37
2023/09/26 12:53:21;;;;;;;;;;;;;;;30.32;78.51;100742.50;5006879;28;66641;-38